Time;durP1;ratioP1;P1;durP2;ratioP2;P2;SDS_P1;SDS_P2;PMS_P1;PMS_P2;Temp;Humidity;BMP_temperature;BMP_pressure;BME280_temperature;BME280_humidity;BME280_pressure;Samples;Min_cycle;Max_cycle;Signal;HPM_P1;HPM_P2
2022/08/20 00:00:22;;;;;;;25.92;19.10;;;;;;;;;;2350821;57;21172;-78
2022/08/20 00:02:51;;;;;;;27.20;19.10;;;;;;;;;;2597590;52;21032;-78
2022/08/20 00:05:20;;;;;;;22.45;17.80;;;;;;;;;;2608203;53;21039;-79
2022/08/20 00:07:47;;;;;;;23.95;17.05;;;;;;;;;;2608384;53;21514;-81
2022/08/20 00:10:15;;;;;;;23.65;17.20;;;;;;;;;;2358839;57;21135;-81
2022/08/20 00:12:44;;;;;;;25.90;18.15;;;;;;;;;;2357074;57;21016;-81
2022/08/20 00:15:12;;;;;;;22.08;17.20;;;;;;;;;;2356837;57;21029;-81
2022/08/20 00:17:39;;;;;;;22.23;16.58;;;;;;;;;;2357298;57;21413;-81
2022/08/20 00:20:09;;;;;;;23.87;15.95;;;;;;;;;;2606833;53;21024;-80
2022/08/20 00:22:37;;;;;;;20.45;15.40;;;;;;;;;;2356696;57;21056;-81
2022/08/20 00:25:04;;;;;;;18.77;14.73;;;;;;;;;;2357204;57;21004;-81
2022/08/20 00:27:32;;;;;;;19.20;13.52;;;;;;;;;;2605240;53;21546;-81
2022/08/20 00:29:59;;;;;;;17.33;12.70;;;;;;;;;;2606661;53;21016;-77
2022/08/20 00:32:26;;;;;;;16.15;12.68;;;;;;;;;;2606028;53;21024;-80
2022/08/20 00:34:53;;;;;;;17.37;13.02;;;;;;;;;;2357333;57;21016;-80
2022/08/20 00:37:20;;;;;;;16.05;13.05;;;;;;;;;;2606437;53;21044;-80
2022/08/20 00:39:47;;;;;;;17.40;12.75;;;;;;;;;;2607056;53;21036;-80
2022/08/20 00:42:14;;;;;;;14.60;11.15;;;;;;;;;;2605652;53;21523;-78
2022/08/20 00:44:45;;;;;;;18.48;11.20;;;;;;;;;;2356854;57;21624;-80
2022/08/20 00:47:12;;;;;;;13.98;11.02;;;;;;;;;;2356062;57;21084;-80
2022/08/20 00:49:39;;;;;;;14.38;11.35;;;;;;;;;;2607147;53;21028;-80
2022/08/20 00:52:07;;;;;;;14.43;11.10;;;;;;;;;;2357150;57;21546;-81
2022/08/20 00:54:37;;;;;;;15.02;10.38;;;;;;;;;;2356718;57;21092;-79
2022/08/20 00:57:07;;;;;;;13.50;10.73;;;;;;;;;;2606462;53;21020;-81
2022/08/20 00:59:36;;;;;;;12.75;10.27;;;;;;;;;;2356344;57;21541;-80
2022/08/20 01:02:06;;;;;;;12.88;9.77;;;;;;;;;;2605795;52;21088;-81
2022/08/20 01:04:34;;;;;;;10.98;9.23;;;;;;;;;;2606415;53;21024;-81
2022/08/20 01:07:02;;;;;;;12.30;9.57;;;;;;;;;;2357008;57;21017;-80
2022/08/20 01:09:29;;;;;;;12.32;9.45;;;;;;;;;;2607391;53;21012;-81
2022/08/20 01:11:56;;;;;;;11.02;8.60;;;;;;;;;;2607000;53;21021;-81
2022/08/20 01:14:27;;;;;;;10.70;8.27;;;;;;;;;;2357018;57;21080;-81
2022/08/20 01:16:56;;;;;;;10.23;8.00;;;;;;;;;;2356633;57;21152;-79
2022/08/20 01:19:27;;;;;;;12.77;8.90;;;;;;;;;;2606059;53;21036;-81
2022/08/20 01:21:54;;;;;;;10.85;8.52;;;;;;;;;;2357462;57;21092;-81
2022/08/20 01:24:25;;;;;;;12.68;9.00;;;;;;;;;;2606449;53;21040;-81
2022/08/20 01:26:53;;;;;;;11.05;8.25;;;;;;;;;;2606564;53;21035;-80
2022/08/20 01:29:22;;;;;;;10.73;8.52;;;;;;;;;;2357636;57;21044;-78
2022/08/20 01:31:49;;;;;;;9.98;7.78;;;;;;;;;;2605087;53;21044;-78
2022/08/20 01:34:18;;;;;;;11.82;8.82;;;;;;;;;;2604753;53;21606;-81
2022/08/20 01:36:47;;;;;;;11.75;8.70;;;;;;;;;;2356727;57;21024;-81
2022/08/20 01:39:16;;;;;;;9.52;7.90;;;;;;;;;;2357297;57;21044;-79
2022/08/20 01:41:52;;;;;;;11.25;8.35;;;;;;;;;;2606347;53;21354;-78
2022/08/20 01:44:21;;;;;;;10.57;7.68;;;;;;;;;;2607016;53;21076;-83
2022/08/20 01:46:49;;;;;;;10.80;7.78;;;;;;;;;;2606119;53;21168;-81
2022/08/20 01:49:17;;;;;;;9.90;7.68;;;;;;;;;;2356414;57;20997;-81
2022/08/20 01:51:44;;;;;;;9.35;8.30;;;;;;;;;;2606416;53;21088;-80
2022/08/20 01:54:11;;;;;;;8.90;7.05;;;;;;;;;;2356793;57;21036;-78
2022/08/20 01:56:52;;;;;;;8.93;7.28;;;;;;;;;;2605947;53;21060;-79
2022/08/20 01:59:19;;;;;;;9.80;7.10;;;;;;;;;;2356792;57;21025;-81
2022/08/20 02:01:46;;;;;;;9.60;7.28;;;;;;;;;;2356590;57;21096;-81
2022/08/20 02:04:13;;;;;;;9.40;6.62;;;;;;;;;;2606036;53;21572;-81
2022/08/20 02:06:42;;;;;;;8.43;7.00;;;;;;;;;;2356244;57;21103;-80
2022/08/20 02:09:11;;;;;;;7.65;6.03;;;;;;;;;;2357142;57;21030;-81
2022/08/20 02:11:39;;;;;;;7.40;6.40;;;;;;;;;;2606909;53;21012;-81
2022/08/20 02:14:08;;;;;;;7.75;6.68;;;;;;;;;;2606958;53;21024;-81
2022/08/20 02:16:36;;;;;;;11.70;6.97;;;;;;;;;;2605647;53;21086;-81
2022/08/20 02:19:08;;;;;;;8.48;6.80;;;;;;;;;;2356996;57;21645;-81
2022/08/20 02:21:37;;;;;;;7.47;6.22;;;;;;;;;;2606710;53;21048;-81
2022/08/20 02:24:05;;;;;;;9.43;6.50;;;;;;;;;;2606286;53;21091;-81
2022/08/20 02:26:36;;;;;;;7.78;6.37;;;;;;;;;;2605856;53;21570;-81
2022/08/20 02:29:05;;;;;;;7.45;6.45;;;;;;;;;;2606810;53;21036;-80
2022/08/20 02:31:32;;;;;;;9.25;7.57;;;;;;;;;;2606413;53;21029;-79
2022/08/20 02:33:59;;;;;;;7.95;6.68;;;;;;;;;;2606665;53;21147;-81
2022/08/20 02:36:26;;;;;;;8.48;6.90;;;;;;;;;;2605838;53;21092;-81
2022/08/20 02:38:53;;;;;;;9.45;7.43;;;;;;;;;;2356976;57;21012;-81
2022/08/20 02:41:21;;;;;;;11.68;8.13;;;;;;;;;;2357174;57;21108;-80
2022/08/20 02:43:50;;;;;;;12.13;8.13;;;;;;;;;;2607048;53;21072;-81
2022/08/20 02:46:18;;;;;;;11.25;8.55;;;;;;;;;;2356148;57;21048;-81
2022/08/20 02:48:45;;;;;;;13.02;8.35;;;;;;;;;;2607061;53;21065;-81
2022/08/20 02:51:12;;;;;;;10.55;8.23;;;;;;;;;;2606022;53;21091;-78
2022/08/20 02:53:41;;;;;;;9.10;7.97;;;;;;;;;;2357360;57;21128;-81
2022/08/20 02:56:08;;;;;;;12.02;8.82;;;;;;;;;;2356308;57;21154;-81
2022/08/20 02:58:36;;;;;;;10.35;8.45;;;;;;;;;;2605456;53;21164;-81
2022/08/20 03:01:03;;;;;;;11.57;8.88;;;;;;;;;;2606127;53;21009;-81
2022/08/20 03:03:30;;;;;;;15.43;11.30;;;;;;;;;;2357480;57;21107;-81
2022/08/20 03:05:58;;;;;;;12.70;9.88;;;;;;;;;;2604921;53;21092;-81
2022/08/20 03:08:27;;;;;;;15.18;11.27;;;;;;;;;;2357338;57;21033;-81
2022/08/20 03:10:55;;;;;;;16.73;11.45;;;;;;;;;;2606292;53;21049;-81
2022/08/20 03:13:22;;;;;;;15.45;10.73;;;;;;;;;;2356752;57;21016;-78
2022/08/20 03:15:51;;;;;;;13.23;9.77;;;;;;;;;;2356495;57;21044;-81
2022/08/20 03:18:19;;;;;;;15.32;11.25;;;;;;;;;;2607111;53;21024;-81
2022/08/20 03:20:46;;;;;;;17.23;11.27;;;;;;;;;;2605284;53;21056;-79
2022/08/20 03:23:14;;;;;;;15.40;10.00;;;;;;;;;;2357469;57;21095;-81
2022/08/20 03:25:41;;;;;;;11.18;8.77;;;;;;;;;;2356707;57;21049;-81
2022/08/20 03:28:09;;;;;;;14.43;10.77;;;;;;;;;;2357518;57;22160;-81
2022/08/20 03:30:36;;;;;;;14.68;10.70;;;;;;;;;;2356102;57;21072;-79
2022/08/20 03:33:03;;;;;;;14.75;11.15;;;;;;;;;;2357237;57;21091;-79
2022/08/20 03:35:31;;;;;;;14.73;10.52;;;;;;;;;;2606234;53;21107;-81
2022/08/20 03:37:58;;;;;;;14.98;10.95;;;;;;;;;;2606115;53;21032;-81
2022/08/20 03:40:27;;;;;;;17.12;10.73;;;;;;;;;;2606151;53;21038;-81
2022/08/20 03:42:54;;;;;;;15.93;11.15;;;;;;;;;;2356637;57;21117;-79
2022/08/20 03:45:22;;;;;;;13.48;10.73;;;;;;;;;;2605495;53;21096;-81
2022/08/20 03:47:50;;;;;;;12.52;9.60;;;;;;;;;;2605907;53;21079;-81
2022/08/20 03:50:19;;;;;;;15.05;11.20;;;;;;;;;;2356910;57;21004;-81
2022/08/20 03:52:46;;;;;;;12.93;9.82;;;;;;;;;;2356488;57;21049;-80
2022/08/20 03:55:13;;;;;;;13.57;10.18;;;;;;;;;;2606102;53;21044;-80
2022/08/20 03:57:44;;;;;;;10.15;8.35;;;;;;;;;;2357189;57;21511;-81
2022/08/20 04:00:12;;;;;;;15.30;10.07;;;;;;;;;;2356481;57;21111;-79
2022/08/20 04:02:39;;;;;;;17.73;12.07;;;;;;;;;;2606630;53;21099;-81
2022/08/20 04:05:07;;;;;;;14.63;10.73;;;;;;;;;;2606367;53;21040;-81
2022/08/20 04:07:35;;;;;;;13.75;10.07;;;;;;;;;;2356805;57;21543;-81
2022/08/20 04:10:05;;;;;;;16.75;11.57;;;;;;;;;;2606507;53;21041;-78
2022/08/20 04:12:32;;;;;;;17.37;11.52;;;;;;;;;;2606539;53;21096;-81
2022/08/20 04:14:59;;;;;;;17.58;12.07;;;;;;;;;;2357407;57;21053;-81
2022/08/20 04:17:26;;;;;;;16.77;12.90;;;;;;;;;;2356742;57;21041;-81
2022/08/20 04:19:53;;;;;;;17.98;12.20;;;;;;;;;;2357481;57;21092;-78
2022/08/20 04:22:21;;;;;;;18.83;13.13;;;;;;;;;;2606362;53;21543;-80
2022/08/20 04:24:49;;;;;;;22.37;13.88;;;;;;;;;;2606364;53;21020;-80
2022/08/20 04:27:16;;;;;;;20.95;13.40;;;;;;;;;;2606478;53;21068;-81
2022/08/20 04:29:43;;;;;;;19.62;13.00;;;;;;;;;;2605978;53;21032;-81
2022/08/20 04:32:11;;;;;;;19.37;12.95;;;;;;;;;;2606407;53;21594;-81
2022/08/20 04:34:39;;;;;;;19.75;13.23;;;;;;;;;;2605086;53;21099;-82
2022/08/20 04:37:06;;;;;;;21.60;13.05;;;;;;;;;;2605549;53;21088;-82
2022/08/20 04:39:33;;;;;;;20.10;14.25;;;;;;;;;;2357200;57;21021;-81
2022/08/20 04:42:00;;;;;;;19.27;13.38;;;;;;;;;;2605075;53;21111;-81
2022/08/20 04:44:27;;;;;;;21.08;13.70;;;;;;;;;;2604142;53;21519;-81
2022/08/20 04:46:54;;;;;;;18.85;13.15;;;;;;;;;;2605448;53;21024;-79
2022/08/20 04:49:23;;;;;;;20.02;14.55;;;;;;;;;;2606219;53;21642;-82
2022/08/20 04:51:51;;;;;;;19.52;12.50;;;;;;;;;;2357250;57;21051;-80
2022/08/20 04:54:18;;;;;;;19.10;13.13;;;;;;;;;;2605965;53;21119;-81
2022/08/20 04:56:47;;;;;;;18.90;12.45;;;;;;;;;;2357096;57;21045;-80
2022/08/20 04:59:14;;;;;;;22.55;13.07;;;;;;;;;;2357407;57;21103;-82
2022/08/20 05:01:41;;;;;;;17.48;12.50;;;;;;;;;;2605141;53;21048;-82
2022/08/20 05:04:08;;;;;;;21.65;13.00;;;;;;;;;;2605502;52;21083;-81
2022/08/20 05:06:35;;;;;;;19.67;12.30;;;;;;;;;;2354773;57;21016;-80
2022/08/20 05:09:02;;;;;;;18.05;12.52;;;;;;;;;;2605804;53;21535;-80
2022/08/20 05:11:29;;;;;;;20.50;12.60;;;;;;;;;;2356779;57;21039;-81
2022/08/20 05:13:56;;;;;;;20.02;13.07;;;;;;;;;;2605671;53;21056;-81
2022/08/20 05:16:24;;;;;;;18.37;12.40;;;;;;;;;;2605183;53;22213;-80
2022/08/20 05:18:51;;;;;;;18.95;13.25;;;;;;;;;;2357553;57;21089;-81
2022/08/20 05:21:19;;;;;;;18.15;12.52;;;;;;;;;;2357201;57;21032;-79
2022/08/20 05:23:46;;;;;;;19.58;13.05;;;;;;;;;;2356454;57;21045;-79
2022/08/20 05:26:14;;;;;;;14.30;11.25;;;;;;;;;;2605673;53;21024;-80
2022/08/20 05:28:41;;;;;;;18.92;12.80;;;;;;;;;;2605617;53;21045;-80
2022/08/20 05:31:09;;;;;;;19.73;13.80;;;;;;;;;;2355585;57;22260;-80
2022/08/20 05:33:37;;;;;;;17.08;12.27;;;;;;;;;;2604874;53;21104;-79
2022/08/20 05:36:05;;;;;;;18.50;11.88;;;;;;;;;;2355701;57;21099;-79
2022/08/20 05:38:34;;;;;;;18.20;12.93;;;;;;;;;;2606476;53;21622;-78
2022/08/20 05:41:01;;;;;;;15.23;10.82;;;;;;;;;;2606519;53;21040;-79
2022/08/20 05:43:29;;;;;;;22.42;12.32;;;;;;;;;;2606448;53;21666;-78
2022/08/20 05:45:57;;;;;;;16.80;12.15;;;;;;;;;;2605015;53;21060;-79
2022/08/20 05:48:24;;;;;;;17.75;12.57;;;;;;;;;;2604253;53;21056;-81
2022/08/20 05:50:53;;;;;;;15.68;11.70;;;;;;;;;;2357096;57;21589;-82
2022/08/20 05:53:21;;;;;;;19.95;12.98;;;;;;;;;;2357417;57;21032;-80
2022/08/20 05:55:48;;;;;;;16.33;11.32;;;;;;;;;;2604988;53;21028;-81
2022/08/20 05:58:17;;;;;;;16.58;11.82;;;;;;;;;;2606628;53;22596;-81
2022/08/20 06:00:44;;;;;;;19.20;12.20;;;;;;;;;;2603995;53;21080;-79
2022/08/20 06:06:05;;;;;;;16.40;10.82;;;;;;;;;;2587362;52;21086;-80
2022/08/20 06:08:32;;;;;;;17.33;10.48;;;;;;;;;;2639815;52;21070;-76
2022/08/20 06:10:59;;;;;;;22.77;11.85;;;;;;;;;;2637512;52;21121;-76
2022/08/20 06:13:27;;;;;;;15.57;11.20;;;;;;;;;;2636942;52;21074;-80
2022/08/20 06:15:55;;;;;;;20.08;11.88;;;;;;;;;;2378697;56;21070;-78
2022/08/20 06:18:22;;;;;;;16.67;11.52;;;;;;;;;;2380075;56;21042;-80
2022/08/20 06:20:49;;;;;;;14.20;10.32;;;;;;;;;;2378664;56;21062;-81
2022/08/20 06:23:16;;;;;;;14.48;10.38;;;;;;;;;;2634952;52;21054;-78
2022/08/20 06:25:43;;;;;;;16.08;10.18;;;;;;;;;;2378693;56;21039;-81
2022/08/20 06:28:10;;;;;;;15.00;10.70;;;;;;;;;;2380374;56;21540;-81
2022/08/20 06:30:38;;;;;;;19.77;12.18;;;;;;;;;;2379782;56;21078;-82
2022/08/20 06:33:06;;;;;;;17.37;11.50;;;;;;;;;;2379800;56;21066;-83
2022/08/20 06:35:36;;;;;;;17.85;12.23;;;;;;;;;;2379022;56;21082;-79
2022/08/20 06:38:04;;;;;;;15.60;11.60;;;;;;;;;;2381050;56;21054;-81
2022/08/20 06:40:33;;;;;;;21.70;14.75;;;;;;;;;;2380959;56;21109;-80
2022/08/20 06:43:01;;;;;;;16.58;12.07;;;;;;;;;;2380413;56;21090;-82
2022/08/20 06:45:30;;;;;;;17.67;12.45;;;;;;;;;;2635089;52;21054;-84
2022/08/20 06:47:58;;;;;;;16.67;12.13;;;;;;;;;;2380353;56;21042;-83
2022/08/20 06:50:27;;;;;;;14.82;10.65;;;;;;;;;;2634237;52;21031;-83
2022/08/20 06:52:54;;;;;;;18.37;12.13;;;;;;;;;;2634173;52;21057;-79
2022/08/20 06:55:22;;;;;;;15.98;11.15;;;;;;;;;;2636553;52;21018;-80
2022/08/20 06:57:58;;;;;;;17.83;11.30;;;;;;;;;;2380852;56;21102;-80
2022/08/20 07:00:47;;;;;;;14.07;10.45;;;;;;;;;;2638273;52;21050;-80
2022/08/20 07:03:21;;;;;;;15.25;10.18;;;;;;;;;;2383372;56;21638;-79
2022/08/20 07:05:48;;;;;;;15.55;11.93;;;;;;;;;;2636693;52;21058;-80
2022/08/20 07:08:21;;;;;;;13.65;10.10;;;;;;;;;;2383888;56;21019;-79
2022/08/20 07:10:49;;;;;;;13.75;10.25;;;;;;;;;;2382142;56;21529;-80
2022/08/20 07:13:16;;;;;;;16.73;11.32;;;;;;;;;;2378814;56;21051;-81
2022/08/20 07:15:43;;;;;;;14.13;10.30;;;;;;;;;;2379091;56;21311;-80
2022/08/20 07:18:23;;;;;;;14.20;10.20;;;;;;;;;;2380521;56;21138;-78
2022/08/20 07:20:53;;;;;;;17.75;11.20;;;;;;;;;;2637384;52;21109;-81
2022/08/20 07:23:22;;;;;;;15.65;11.43;;;;;;;;;;2382644;56;21074;-80
2022/08/20 07:25:50;;;;;;;14.43;11.48;;;;;;;;;;2382284;56;21081;-78
2022/08/20 07:28:18;;;;;;;15.00;9.93;;;;;;;;;;2382695;56;21062;-82
2022/08/20 07:39:55;;;;;;;13.95;10.50;;;;;;;;;;2529108;53;21036;-77
2022/08/20 07:42:24;;;;;;;13.18;8.85;;;;;;;;;;2297246;58;21071;-78
2022/08/20 07:44:51;;;;;;;11.65;8.50;;;;;;;;;;2295952;58;21142;-78
2022/08/20 07:47:18;;;;;;;11.68;8.10;;;;;;;;;;2295879;57;21040;-77
2022/08/20 07:49:45;;;;;;;11.25;8.10;;;;;;;;;;2532917;54;21805;-78
2022/08/20 07:52:13;;;;;;;10.13;7.35;;;;;;;;;;2296879;57;21040;-78
2022/08/20 07:54:40;;;;;;;11.50;7.82;;;;;;;;;;2296719;58;21055;-83
2022/08/20 07:57:07;;;;;;;7.45;5.78;;;;;;;;;;2295511;58;21004;-82
2022/08/20 07:59:35;;;;;;;6.40;5.00;;;;;;;;;;2296422;58;21079;-77
2022/08/20 08:02:03;;;;;;;7.10;5.25;;;;;;;;;;2293882;58;21130;-80
2022/08/20 08:04:30;;;;;;;7.62;4.37;;;;;;;;;;2294310;58;21047;-79
2022/08/20 08:06:58;;;;;;;5.60;3.55;;;;;;;;;;2293442;58;21102;-81
2022/08/20 08:09:26;;;;;;;6.10;3.33;;;;;;;;;;2295624;58;21082;-81
2022/08/20 08:11:56;;;;;;;6.20;3.87;;;;;;;;;;2530662;54;21094;-79
2022/08/20 08:14:37;;;;;;;4.50;2.97;;;;;;;;;;2295867;58;21260;-77
2022/08/20 08:17:06;;;;;;;7.35;4.43;;;;;;;;;;2294817;58;21051;-83
2022/08/20 08:19:37;;;;;;;4.50;3.35;;;;;;;;;;2296174;58;21147;-78
2022/08/20 08:22:05;;;;;;;5.32;2.55;;;;;;;;;;2293489;58;21039;-82
2022/08/20 08:24:48;;;;;;;6.85;3.45;;;;;;;;;;2530676;55;21118;-77
2022/08/20 08:27:17;;;;;;;4.37;3.40;;;;;;;;;;2530748;55;21071;-82
2022/08/20 08:29:44;;;;;;;5.60;3.90;;;;;;;;;;2294620;58;21436;-80
2022/08/20 08:32:11;;;;;;;5.50;2.67;;;;;;;;;;2292555;58;21051;-82
2022/08/20 08:34:38;;;;;;;5.93;2.80;;;;;;;;;;2292174;58;21054;-81
2022/08/20 08:37:05;;;;;;;5.28;2.92;;;;;;;;;;2527079;55;21051;-81
2022/08/20 08:39:33;;;;;;;2.85;2.20;;;;;;;;;;2527560;55;21130;-80
2022/08/20 08:42:03;;;;;;;5.47;2.65;;;;;;;;;;2293311;58;21179;-82
2022/08/20 08:44:34;;;;;;;3.60;2.62;;;;;;;;;;2291856;58;21064;-83
2022/08/20 08:47:02;;;;;;;4.62;2.72;;;;;;;;;;2291986;58;21404;-81
2022/08/20 08:49:31;;;;;;;4.75;3.03;;;;;;;;;;2292158;58;21589;-79
2022/08/20 08:52:00;;;;;;;7.80;3.53;;;;;;;;;;2291593;58;21066;-80
2022/08/20 08:54:30;;;;;;;6.50;3.15;;;;;;;;;;2291172;58;21043;-83
2022/08/20 08:56:58;;;;;;;6.72;3.92;;;;;;;;;;2292413;58;21047;-82
2022/08/20 08:59:27;;;;;;;4.37;2.70;;;;;;;;;;2292838;58;21071;-81
2022/08/20 09:01:56;;;;;;;5.25;2.58;;;;;;;;;;2290596;58;21063;-81
2022/08/20 09:04:30;;;;;;;4.03;2.42;;;;;;;;;;2528404;55;21087;-78
2022/08/20 09:06:57;;;;;;;3.70;2.15;;;;;;;;;;2290739;58;21097;-80
2022/08/20 09:09:27;;;;;;;6.80;2.47;;;;;;;;;;2288784;58;21055;-81
2022/08/20 09:11:55;;;;;;;3.40;1.98;;;;;;;;;;2290369;58;21119;-81
2022/08/20 09:14:23;;;;;;;5.25;1.70;;;;;;;;;;2523785;55;21128;-80
2022/08/20 09:16:51;;;;;;;3.53;2.30;;;;;;;;;;2523703;55;21175;-80
2022/08/20 09:19:18;;;;;;;5.45;2.35;;;;;;;;;;2289162;58;21119;-80
2022/08/20 09:21:45;;;;;;;3.37;1.87;;;;;;;;;;2289690;58;21138;-80
2022/08/20 09:24:12;;;;;;;3.60;2.05;;;;;;;;;;2523951;55;21055;-80
2022/08/20 09:26:39;;;;;;;5.85;2.40;;;;;;;;;;2288892;58;22195;-81
2022/08/20 09:29:06;;;;;;;4.35;2.15;;;;;;;;;;2289428;58;21131;-82
2022/08/20 09:31:34;;;;;;;4.20;2.05;;;;;;;;;;2288340;58;21047;-81
2022/08/20 09:34:01;;;;;;;4.35;2.62;;;;;;;;;;2289983;58;21126;-80
2022/08/20 09:36:28;;;;;;;4.50;2.05;;;;;;;;;;2289076;58;21055;-81
2022/08/20 09:38:55;;;;;;;5.10;2.08;;;;;;;;;;2289897;58;21226;-80
2022/08/20 09:41:22;;;;;;;4.93;2.05;;;;;;;;;;2288787;58;21614;-80
2022/08/20 09:43:49;;;;;;;4.18;1.80;;;;;;;;;;2290551;58;21115;-80
2022/08/20 09:46:16;;;;;;;2.80;1.70;;;;;;;;;;2289247;58;21605;-81
2022/08/20 09:48:43;;;;;;;5.72;2.45;;;;;;;;;;2524964;55;21043;-79
2022/08/20 09:51:10;;;;;;;4.10;2.28;;;;;;;;;;2289477;58;21055;-81
2022/08/20 09:53:37;;;;;;;3.67;2.10;;;;;;;;;;2289560;58;21094;-80
2022/08/20 09:56:05;;;;;;;3.35;1.95;;;;;;;;;;2523734;55;21052;-81
2022/08/20 09:58:34;;;;;;;4.28;2.15;;;;;;;;;;2289703;58;21213;-81
2022/08/20 10:01:03;;;;;;;4.05;1.77;;;;;;;;;;2289995;58;21098;-81
2022/08/20 10:03:30;;;;;;;4.55;1.90;;;;;;;;;;2290319;58;21063;-80
2022/08/20 10:05:58;;;;;;;3.72;1.60;;;;;;;;;;2524761;55;21657;-81
2022/08/20 10:08:26;;;;;;;5.93;1.50;;;;;;;;;;2290820;58;21703;-81
2022/08/20 10:10:53;;;;;;;3.33;1.50;;;;;;;;;;2290391;58;21063;-81
2022/08/20 10:13:20;;;;;;;5.37;2.12;;;;;;;;;;2290282;58;21056;-81
2022/08/20 10:15:47;;;;;;;3.25;1.60;;;;;;;;;;2290771;58;21067;-80
2022/08/20 10:18:14;;;;;;;3.95;1.98;;;;;;;;;;2291297;58;21063;-80
2022/08/20 10:20:41;;;;;;;4.10;1.83;;;;;;;;;;2290438;58;21055;-82
2022/08/20 10:23:09;;;;;;;3.53;1.98;;;;;;;;;;2291061;58;21067;-81
2022/08/20 10:25:36;;;;;;;2.75;1.87;;;;;;;;;;2290492;58;21712;-81
2022/08/20 10:28:04;;;;;;;3.83;1.77;;;;;;;;;;2290527;58;21063;-81
2022/08/20 10:30:31;;;;;;;4.60;2.03;;;;;;;;;;2289415;58;21083;-81
2022/08/20 10:32:58;;;;;;;5.97;2.00;;;;;;;;;;2290039;58;21676;-81
2022/08/20 10:35:25;;;;;;;5.50;2.00;;;;;;;;;;2289733;58;21063;-81
2022/08/20 10:37:52;;;;;;;6.50;1.67;;;;;;;;;;2289986;58;21083;-80
2022/08/20 10:40:19;;;;;;;7.93;1.85;;;;;;;;;;2290153;58;21071;-80
2022/08/20 10:42:46;;;;;;;4.45;2.10;;;;;;;;;;2289204;58;21066;-82
2022/08/20 10:45:14;;;;;;;6.32;1.98;;;;;;;;;;2289946;58;21063;-79
2022/08/20 10:47:41;;;;;;;8.02;2.53;;;;;;;;;;2290276;58;21135;-80
2022/08/20 10:50:11;;;;;;;5.90;2.12;;;;;;;;;;2289686;58;21103;-80
2022/08/20 10:52:38;;;;;;;7.15;2.37;;;;;;;;;;2524574;54;21337;-80
2022/08/20 10:55:06;;;;;;;4.78;2.03;;;;;;;;;;2523766;55;21055;-81
2022/08/20 10:57:33;;;;;;;5.80;2.08;;;;;;;;;;2289658;58;21071;-81
2022/08/20 11:00:01;;;;;;;3.42;1.75;;;;;;;;;;2289745;58;21063;-80
2022/08/20 11:02:28;;;;;;;4.85;1.98;;;;;;;;;;2287403;58;21661;-81
2022/08/20 11:04:56;;;;;;;5.95;1.83;;;;;;;;;;2287861;58;21397;-80
2022/08/20 11:07:26;;;;;;;6.12;2.25;;;;;;;;;;2285824;58;21119;-80
2022/08/20 11:09:54;;;;;;;4.93;1.80;;;;;;;;;;2289202;58;21123;-81
2022/08/20 11:12:22;;;;;;;8.77;1.90;;;;;;;;;;2288531;58;21115;-81
2022/08/20 11:14:50;;;;;;;4.43;1.75;;;;;;;;;;2288113;58;21071;-82
2022/08/20 11:17:20;;;;;;;3.30;1.73;;;;;;;;;;2287663;58;21114;-81
2022/08/20 11:19:47;;;;;;;6.03;1.83;;;;;;;;;;2290603;59;21253;-80
2022/08/20 11:22:14;;;;;;;5.45;1.83;;;;;;;;;;2288752;59;21054;-82
2022/08/20 11:24:41;;;;;;;4.75;1.80;;;;;;;;;;2283686;58;21134;-81
2022/08/20 11:27:08;;;;;;;5.68;1.70;;;;;;;;;;2285172;58;21059;-80
2022/08/20 11:29:36;;;;;;;5.80;1.92;;;;;;;;;;2288448;59;21063;-81
2022/08/20 11:32:03;;;;;;;5.10;1.45;;;;;;;;;;2287925;58;21095;-82
2022/08/20 11:34:31;;;;;;;5.18;1.90;;;;;;;;;;2288640;59;21148;-81
2022/08/20 11:36:58;;;;;;;5.32;2.25;;;;;;;;;;2287645;59;21597;-82
2022/08/20 11:39:25;;;;;;;11.30;2.40;;;;;;;;;;2289118;59;21975;-81
2022/08/20 11:41:52;;;;;;;7.75;2.15;;;;;;;;;;2287884;59;21131;-81
2022/08/20 11:44:19;;;;;;;8.98;2.10;;;;;;;;;;2288465;59;21063;-84
2022/08/20 11:46:46;;;;;;;4.95;2.25;;;;;;;;;;2287637;59;21135;-83
2022/08/20 11:49:13;;;;;;;8.77;3.12;;;;;;;;;;2288636;59;21067;-82
2022/08/20 11:51:40;;;;;;;5.95;1.77;;;;;;;;;;2288645;59;21055;-81
2022/08/20 11:54:07;;;;;;;6.95;2.15;;;;;;;;;;2289141;58;21129;-81
2022/08/20 11:56:35;;;;;;;7.20;2.03;;;;;;;;;;2287995;59;21059;-81
2022/08/20 11:59:02;;;;;;;8.55;2.08;;;;;;;;;;2289918;59;21063;-82
2022/08/20 12:01:29;;;;;;;5.82;1.50;;;;;;;;;;2289245;58;21071;-81
2022/08/20 12:04:15;;;;;;;6.07;1.62;;;;;;;;;;2288427;58;21137;-81
2022/08/20 12:06:42;;;;;;;6.85;1.87;;;;;;;;;;2229413;60;21089;-81
2022/08/20 12:09:09;;;;;;;4.53;1.75;;;;;;;;;;2229566;60;21554;-83
2022/08/20 12:11:36;;;;;;;4.82;1.95;;;;;;;;;;2454253;56;21093;-81
2022/08/20 12:14:03;;;;;;;4.90;1.25;;;;;;;;;;2481748;55;21071;-83
2022/08/20 12:16:31;;;;;;;8.23;1.80;;;;;;;;;;2254018;59;21517;-81
2022/08/20 12:18:58;;;;;;;4.78;1.30;;;;;;;;;;2481688;55;21126;-83
2022/08/20 12:21:25;;;;;;;8.55;2.20;;;;;;;;;;2482319;55;21095;-82
2022/08/20 12:23:52;;;;;;;5.78;1.50;;;;;;;;;;2255129;59;21546;-82
2022/08/20 12:26:19;;;;;;;12.60;2.30;;;;;;;;;;2481469;55;21537;-81
2022/08/20 12:28:46;;;;;;;9.27;1.95;;;;;;;;;;2481598;55;21107;-84
2022/08/20 12:31:13;;;;;;;12.75;1.98;;;;;;;;;;2254913;59;21146;-81
2022/08/20 12:33:40;;;;;;;22.20;4.35;;;;;;;;;;2481872;55;21125;-83
2022/08/20 12:36:08;;;;;;;30.98;4.82;;;;;;;;;;2253976;59;21165;-83
2022/08/20 12:38:35;;;;;;;25.33;4.75;;;;;;;;;;2482455;56;21139;-83
2022/08/20 12:41:02;;;;;;;14.13;2.30;;;;;;;;;;2481878;55;21156;-81
2022/08/20 12:43:29;;;;;;;12.25;2.50;;;;;;;;;;2254261;59;21210;-84
2022/08/20 12:45:56;;;;;;;9.30;2.03;;;;;;;;;;2255035;59;21102;-81
2022/08/20 12:48:23;;;;;;;10.75;2.05;;;;;;;;;;2255005;59;21090;-81
2022/08/20 12:50:51;;;;;;;11.07;1.90;;;;;;;;;;2254943;59;21644;-83
2022/08/20 12:53:18;;;;;;;4.20;1.48;;;;;;;;;;2253296;59;21071;-83
2022/08/20 12:55:45;;;;;;;5.00;1.42;;;;;;;;;;2481045;55;21078;-84
2022/08/20 12:58:13;;;;;;;5.95;2.28;;;;;;;;;;2479782;55;21063;-82
2022/08/20 13:00:43;;;;;;;13.18;1.95;;;;;;;;;;2255432;59;21083;-83
2022/08/20 13:03:11;;;;;;;6.35;1.20;;;;;;;;;;2255103;59;21087;-83
2022/08/20 13:05:38;;;;;;;5.68;1.85;;;;;;;;;;2480713;55;21632;-81
2022/08/20 13:08:07;;;;;;;6.15;1.35;;;;;;;;;;2481862;55;21063;-84
2022/08/20 13:10:35;;;;;;;5.43;1.95;;;;;;;;;;2254740;59;21094;-83
2022/08/20 13:13:02;;;;;;;6.05;1.23;;;;;;;;;;2254242;59;21131;-84
2022/08/20 13:15:29;;;;;;;5.57;1.87;;;;;;;;;;2480615;55;21657;-83
2022/08/20 13:17:57;;;;;;;5.35;1.12;;;;;;;;;;2255101;59;21090;-82
2022/08/20 13:20:25;;;;;;;5.35;1.50;;;;;;;;;;2254839;59;21091;-81
2022/08/20 13:22:53;;;;;;;6.03;1.60;;;;;;;;;;2255159;59;21162;-82
2022/08/20 13:25:20;;;;;;;3.92;1.30;;;;;;;;;;2254349;59;21082;-83
2022/08/20 13:27:48;;;;;;;5.22;1.20;;;;;;;;;;2255758;59;21636;-83
2022/08/20 13:30:17;;;;;;;2.87;1.10;;;;;;;;;;2255178;59;21090;-83
2022/08/20 13:32:45;;;;;;;3.33;1.00;;;;;;;;;;2253918;59;21118;-81
2022/08/20 13:35:12;;;;;;;5.87;1.45;;;;;;;;;;2481497;55;21091;-82
2022/08/20 13:37:40;;;;;;;4.65;1.23;;;;;;;;;;2480722;55;21150;-83
2022/08/20 13:40:09;;;;;;;6.57;1.58;;;;;;;;;;2254325;59;21083;-84
2022/08/20 13:42:37;;;;;;;9.30;1.77;;;;;;;;;;2254944;59;21075;-83
2022/08/20 13:45:05;;;;;;;5.53;1.12;;;;;;;;;;2253481;59;21118;-80
2022/08/20 13:47:33;;;;;;;17.95;2.70;;;;;;;;;;2253656;59;21083;-81
2022/08/20 13:50:03;;;;;;;6.32;1.67;;;;;;;;;;2253844;59;21130;-78
2022/08/20 13:52:31;;;;;;;17.27;2.40;;;;;;;;;;2253596;59;21063;-78
2022/08/20 13:54:58;;;;;;;9.68;2.37;;;;;;;;;;2253476;59;21778;-79
2022/08/20 13:57:26;;;;;;;21.33;3.78;;;;;;;;;;2253013;59;21158;-78
2022/08/20 13:59:55;;;;;;;18.37;3.03;;;;;;;;;;2252306;59;21114;-81
2022/08/20 14:02:22;;;;;;;12.70;2.10;;;;;;;;;;2480343;55;21234;-81
2022/08/20 14:04:49;;;;;;;14.65;3.22;;;;;;;;;;2254158;59;21158;-81
2022/08/20 14:07:17;;;;;;;12.10;2.20;;;;;;;;;;2481300;55;21083;-81
2022/08/20 14:09:46;;;;;;;4.10;1.40;;;;;;;;;;2253796;59;21078;-84
2022/08/20 14:12:13;;;;;;;4.37;2.25;;;;;;;;;;2253562;59;21090;-82
2022/08/20 14:14:41;;;;;;;5.32;2.08;;;;;;;;;;2254156;59;21135;-82
2022/08/20 14:17:15;;;;;;;5.80;1.27;;;;;;;;;;2253704;59;21170;-83
2022/08/20 14:19:42;;;;;;;3.08;0.90;;;;;;;;;;2254277;59;21592;-79
2022/08/20 14:22:09;;;;;;;3.62;1.52;;;;;;;;;;2480158;55;21059;-80
2022/08/20 14:24:37;;;;;;;4.30;1.45;;;;;;;;;;2253314;59;21119;-77
2022/08/20 14:27:04;;;;;;;5.60;1.15;;;;;;;;;;2253156;59;21581;-80
2022/08/20 14:29:32;;;;;;;4.70;1.30;;;;;;;;;;2252547;59;21147;-78
2022/08/20 14:31:59;;;;;;;3.87;1.12;;;;;;;;;;2254138;59;21082;-80
2022/08/20 14:34:26;;;;;;;2.62;0.95;;;;;;;;;;2255662;59;21119;-80
2022/08/20 14:36:54;;;;;;;5.00;1.33;;;;;;;;;;2254947;59;21142;-80
2022/08/20 14:39:22;;;;;;;8.70;2.35;;;;;;;;;;2255499;59;21110;-81
2022/08/20 14:41:49;;;;;;;6.47;1.30;;;;;;;;;;2256280;59;21094;-80
2022/08/20 14:44:16;;;;;;;4.78;1.00;;;;;;;;;;2256261;59;21071;-80
2022/08/20 14:46:43;;;;;;;3.97;1.20;;;;;;;;;;2254677;59;21094;-80